Time;durP1;ratioP1;P1;durP2;ratioP2;P2;SDS_P1;SDS_P2;PMS_P1;PMS_P2;Temp;Humidity;BMP_temperature;BMP_pressure;BME280_temperature;BME280_humidity;BME280_pressure;Samples;Min_cycle;Max_cycle;Signal;HPM_P1;HPM_P2
2022/05/09 00:00:41;;;;;;;11.23;7.38;;;;;;;-141.48;100.00;69781.59;5163233;28;20385;-84
2022/05/09 00:03:11;;;;;;;5.35;5.05;;;;;;;-141.48;100.00;69781.59;5160868;28;20091;-84
2022/05/09 00:05:42;;;;;;;6.80;6.10;;;;;;;-141.48;100.00;69781.59;5164524;28;20034;-84
2022/05/09 00:08:12;;;;;;;5.90;5.32;;;;;;;-141.48;100.00;69781.59;5181801;28;20187;-85
2022/05/09 00:10:43;;;;;;;7.78;6.10;;;;;;;-141.48;100.00;69781.59;5181218;28;20061;-84
2022/05/09 00:13:13;;;;;;;6.90;6.30;;;;;;;-141.48;100.00;69781.59;5182191;28;20030;-85
2022/05/09 00:15:43;;;;;;;7.55;6.30;;;;;;;-141.48;100.00;69781.59;5181556;28;20026;-83
2022/05/09 00:18:14;;;;;;;6.85;5.90;;;;;;;-141.48;100.00;69781.59;5181383;28;20053;-83
2022/05/09 00:20:44;;;;;;;11.18;7.70;;;;;;;-141.48;100.00;69781.59;5181129;28;20026;-83
2022/05/09 00:23:15;;;;;;;7.30;6.70;;;;;;;-141.48;100.00;69781.59;5163143;28;20072;-83
2022/05/09 00:25:45;;;;;;;6.78;6.07;;;;;;;-141.48;100.00;69781.59;5164058;28;20022;-83
2022/05/09 00:28:16;;;;;;;7.45;6.10;;;;;;;-141.48;100.00;69781.59;5181873;28;20014;-83
2022/05/09 00:30:46;;;;;;;8.60;6.07;;;;;;;-141.48;100.00;69781.59;5181043;28;20026;-85
2022/05/09 00:33:17;;;;;;;6.90;6.30;;;;;;;-141.48;100.00;69781.59;5170306;28;20030;-84
2022/05/09 00:35:47;;;;;;;5.55;5.05;;;;;;;-141.48;100.00;69781.59;5185383;28;20030;-84
2022/05/09 00:38:17;;;;;;;6.63;4.75;;;;;;;-141.48;100.00;69781.59;5181870;28;20038;-84
2022/05/09 00:43:39;;;;;;;7.85;7.15;;;;;;;-141.48;100.00;69781.59;5181168;28;20044;-84
2022/05/09 00:46:09;;;;;;;5.65;5.05;;;;;;;-141.48;100.00;69781.59;5181771;28;20531;-83
2022/05/09 00:48:39;;;;;;;5.88;5.43;;;;;;;-141.48;100.00;69781.59;5163842;28;20018;-84
2022/05/09 00:51:10;;;;;;;7.55;7.05;;;;;;;-141.48;100.00;69781.59;5163595;28;20033;-84
2022/05/09 00:53:41;;;;;;;7.10;6.22;;;;;;;-141.48;100.00;69781.59;5164018;28;20109;-84
2022/05/09 00:56:23;;;;;;;6.50;5.93;;;;;;;-141.48;100.00;69781.59;5164056;28;20214;-84
2022/05/09 00:59:01;;;;;;;7.90;7.25;;;;;;;-141.48;100.00;69781.59;5163760;28;20026;-84
2022/05/09 01:01:32;;;;;;;10.57;6.20;;;;;;;-141.48;100.00;69781.59;5162959;28;20057;-84
2022/05/09 01:04:13;;;;;;;11.35;6.90;;;;;;;-141.48;100.00;69781.59;5178830;28;20389;-84
2022/05/09 01:06:43;;;;;;;6.90;6.22;;;;;;;-141.48;100.00;69781.59;5178902;28;20619;-84
2022/05/09 01:09:14;;;;;;;7.72;6.85;;;;;;;-141.48;100.00;69781.59;5180840;28;20030;-84
2022/05/09 01:11:46;;;;;;;10.90;7.25;;;;;;;-141.48;100.00;69781.59;5184879;28;20069;-84
2022/05/09 01:14:28;;;;;;;7.60;6.47;;;;;;;-141.48;100.00;69781.59;5173058;28;20014;-84
2022/05/09 01:17:01;;;;;;;10.30;6.00;;;;;;;-141.48;100.00;69781.59;5167865;28;20077;-84
2022/05/09 01:19:41;;;;;;;6.60;6.10;;;;;;;-141.48;100.00;69781.59;5167887;28;20022;-84
2022/05/09 01:22:22;;;;;;;7.45;6.60;;;;;;;-141.48;100.00;69781.59;5184496;28;20027;-84
2022/05/09 01:24:55;;;;;;;11.27;7.60;;;;;;;-141.48;100.00;69781.59;5167260;28;20022;-84
2022/05/09 01:27:25;;;;;;;5.95;5.45;;;;;;;-141.48;100.00;69781.59;5164168;28;20026;-84
2022/05/09 01:30:03;;;;;;;8.00;7.22;;;;;;;-141.48;100.00;69781.59;5163735;28;20507;-84
2022/05/09 01:32:49;;;;;;;9.43;5.72;;;;;;;-141.48;100.00;69781.59;5181501;28;20095;-84
2022/05/09 01:35:39;;;;;;;7.35;6.82;;;;;;;-141.48;100.00;69781.59;5180975;28;20038;-84
2022/05/09 01:38:19;;;;;;;9.30;7.07;;;;;;;-141.48;100.00;69781.59;5180528;28;20018;-84
2022/05/09 01:40:53;;;;;;;11.18;6.93;;;;;;;-141.48;100.00;69781.59;5180528;28;20030;-85
2022/05/09 01:43:33;;;;;;;6.30;5.80;;;;;;;-141.48;100.00;69781.59;5163209;28;20050;-83
2022/05/09 01:46:06;;;;;;;11.48;7.50;;;;;;;-141.48;100.00;69781.59;5161954;28;20053;-82
2022/05/09 01:51:26;;;;;;;16.40;8.02;;;;;;;-141.48;100.00;69781.59;5181128;28;20030;-83
2022/05/09 01:53:57;;;;;;;6.70;6.10;;;;;;;-141.48;100.00;69781.59;5163162;28;20023;-83
2022/05/09 01:56:31;;;;;;;20.83;8.35;;;;;;;-141.48;100.00;69781.59;5181254;28;20061;-83
2022/05/09 01:59:04;;;;;;;8.63;7.75;;;;;;;-141.48;100.00;69781.59;5181790;28;20137;-84
2022/05/09 02:01:39;;;;;;;8.20;6.60;;;;;;;-141.48;100.00;69781.59;5181153;28;20022;-83
2022/05/09 02:04:11;;;;;;;7.35;6.75;;;;;;;-141.48;100.00;69781.59;5181098;28;20069;-83
2022/05/09 02:06:41;;;;;;;9.20;6.80;;;;;;;-141.48;100.00;69781.59;5164326;28;20057;-83
2022/05/09 02:09:12;;;;;;;8.35;6.60;;;;;;;-141.48;100.00;69781.59;5181866;28;20030;-83
2022/05/09 02:11:42;;;;;;;6.88;6.43;;;;;;;-141.48;100.00;69781.59;5182625;28;20018;-83
2022/05/09 02:14:13;;;;;;;7.57;6.97;;;;;;;-141.48;100.00;69781.59;5181061;28;20034;-83
2022/05/09 02:16:43;;;;;;;8.18;7.43;;;;;;;-141.48;100.00;69781.59;5166962;28;20098;-83
2022/05/09 02:19:14;;;;;;;9.43;8.15;;;;;;;-141.48;100.00;69781.59;5182102;28;20082;-83
2022/05/09 02:21:44;;;;;;;9.15;7.45;;;;;;;-141.48;100.00;69781.59;5181189;28;20034;-83
2022/05/09 02:24:14;;;;;;;6.80;6.30;;;;;;;-141.48;100.00;69781.59;5187043;28;20041;-82
2022/05/09 02:26:45;;;;;;;8.75;7.63;;;;;;;-141.48;100.00;69781.59;5188902;28;20026;-83
2022/05/09 02:29:15;;;;;;;8.13;7.53;;;;;;;-141.48;100.00;69781.59;5172255;28;20018;-82
2022/05/09 02:31:45;;;;;;;7.00;6.60;;;;;;;-141.48;100.00;69781.59;5172142;28;20022;-83
2022/05/09 02:34:16;;;;;;;7.55;6.95;;;;;;;-141.48;100.00;69781.59;5189878;28;20030;-83
2022/05/09 02:36:46;;;;;;;7.82;7.10;;;;;;;-141.48;100.00;69781.59;5185372;28;20329;-83
2022/05/09 02:39:17;;;;;;;8.27;7.15;;;;;;;-141.48;100.00;69781.59;5170116;28;20022;-83
2022/05/09 02:41:48;;;;;;;9.80;8.82;;;;;;;-141.48;100.00;69781.59;5193403;28;20048;-82
2022/05/09 02:44:18;;;;;;;7.70;7.15;;;;;;;-141.48;100.00;69781.59;5175845;28;20033;-82
2022/05/09 02:46:48;;;;;;;6.68;6.10;;;;;;;-141.48;100.00;69781.59;5176004;28;20054;-83
2022/05/09 02:49:19;;;;;;;8.60;5.93;;;;;;;-141.48;100.00;69781.59;5176350;28;20019;-83
2022/05/09 02:51:51;;;;;;;7.22;6.65;;;;;;;-141.48;100.00;69781.59;5192556;28;20122;-83
2022/05/09 02:54:22;;;;;;;8.75;8.05;;;;;;;-141.48;100.00;69781.59;5175700;28;20086;-82
2022/05/09 02:56:52;;;;;;;8.90;7.95;;;;;;;-141.48;100.00;69781.59;5192839;28;20018;-83
2022/05/09 02:59:22;;;;;;;11.45;9.43;;;;;;;-141.48;100.00;69781.59;5192802;28;20049;-83
2022/05/09 03:01:53;;;;;;;7.82;7.13;;;;;;;-141.48;100.00;69781.59;5192760;28;20061;-83
2022/05/09 03:04:41;;;;;;;8.65;7.85;;;;;;;-141.48;100.00;69781.59;5192419;28;20075;-83
2022/05/09 03:07:16;;;;;;;12.65;8.35;;;;;;;-141.48;100.00;69781.59;5175388;28;20106;-83
2022/05/09 03:09:48;;;;;;;11.70;7.57;;;;;;;-141.48;100.00;69781.59;5192214;28;20070;-83
2022/05/09 03:12:19;;;;;;;11.88;8.82;;;;;;;-141.48;100.00;69781.59;5192666;28;20050;-83
2022/05/09 03:14:50;;;;;;;6.85;6.43;;;;;;;-141.48;100.00;69781.59;5192373;28;20022;-82
2022/05/09 03:17:21;;;;;;;9.85;8.20;;;;;;;-141.48;100.00;69781.59;5188608;28;20030;-83
2022/05/09 03:19:51;;;;;;;8.35;7.47;;;;;;;-141.48;100.00;69781.59;5178493;28;20053;-83
2022/05/09 03:22:21;;;;;;;10.07;9.23;;;;;;;-141.48;100.00;69781.59;5158845;28;20037;-87
2022/05/09 03:24:52;;;;;;;8.45;7.68;;;;;;;-141.48;100.00;69781.59;5179556;28;20077;-85
2022/05/09 03:27:22;;;;;;;11.07;6.60;;;;;;;-141.48;100.00;69781.59;5181146;28;20027;-85
2022/05/09 03:29:53;;;;;;;10.77;7.50;;;;;;;-141.48;100.00;69781.59;5178147;28;20037;-84
2022/05/09 03:32:23;;;;;;;12.05;8.35;;;;;;;-141.48;100.00;69781.59;5160370;28;20172;-84
2022/05/09 03:34:54;;;;;;;6.90;6.40;;;;;;;-141.48;100.00;69781.59;5214059;23;20053;-79
2022/05/09 03:37:24;;;;;;;12.35;7.90;;;;;;;-141.48;100.00;69781.59;5158821;28;20030;-80
2022/05/09 03:39:54;;;;;;;10.73;7.32;;;;;;;-141.48;100.00;69781.59;5179841;28;20033;-80
2022/05/09 03:42:25;;;;;;;7.82;7.07;;;;;;;-141.48;100.00;69781.59;5181418;28;20037;-78
2022/05/09 03:44:55;;;;;;;7.68;7.28;;;;;;;-141.48;100.00;69781.59;5180137;28;20069;-78
2022/05/09 03:47:26;;;;;;;16.60;9.18;;;;;;;-141.48;100.00;69781.59;5180817;28;20037;-78
2022/05/09 03:49:57;;;;;;;10.48;8.00;;;;;;;-141.48;100.00;69781.59;5180430;28;20026;-79
2022/05/09 03:52:27;;;;;;;8.00;7.38;;;;;;;-141.48;100.00;69781.59;5177153;28;20112;-80
2022/05/09 03:54:58;;;;;;;8.60;8.00;;;;;;;-141.48;100.00;69781.59;5174167;28;20353;-80
2022/05/09 03:57:29;;;;;;;13.02;8.38;;;;;;;-141.48;100.00;69781.59;5175010;28;20036;-80
2022/05/09 04:00:07;;;;;;;8.93;7.95;;;;;;;-141.48;100.00;69781.59;5157082;28;20027;-81
2022/05/09 04:02:37;;;;;;;9.95;9.05;;;;;;;-141.48;100.00;69781.59;5175430;28;20514;-81
2022/05/09 04:05:15;;;;;;;10.65;9.60;;;;;;;-141.48;100.00;69781.59;5174677;28;20058;-80
2022/05/09 04:07:52;;;;;;;15.68;10.98;;;;;;;-141.48;100.00;69781.59;5173792;28;20050;-78
2022/05/09 04:10:27;;;;;;;8.20;7.40;;;;;;;-141.48;100.00;69781.59;5174912;28;20062;-81
2022/05/09 04:12:58;;;;;;;8.00;7.35;;;;;;;-141.48;100.00;69781.59;5172818;28;20022;-80
2022/05/09 04:18:19;;;;;;;9.15;8.35;;;;;;;-141.48;100.00;69781.59;5174501;28;20106;-81
2022/05/09 04:20:50;;;;;;;16.63;9.38;;;;;;;-141.48;100.00;69781.59;5174077;28;20030;-81
2022/05/09 04:23:21;;;;;;;13.70;8.13;;;;;;;-141.48;100.00;69781.59;5174032;28;20480;-80
2022/05/09 04:25:52;;;;;;;8.52;7.88;;;;;;;-141.48;100.00;69781.59;5173982;28;20030;-80
2022/05/09 04:28:22;;;;;;;26.27;8.60;;;;;;;-141.48;100.00;69781.59;5174572;28;20022;-79
2022/05/09 04:30:53;;;;;;;9.95;8.90;;;;;;;-141.48;100.00;69781.59;5157034;28;20488;-80
2022/05/09 04:33:24;;;;;;;14.70;9.27;;;;;;;-141.48;100.00;69781.59;5173768;28;20480;-82
2022/05/09 04:35:54;;;;;;;7.90;7.05;;;;;;;-141.48;100.00;69781.59;5172132;28;20084;-80
2022/05/09 04:38:26;;;;;;;11.43;8.60;;;;;;;-141.48;100.00;69781.59;5167828;28;20030;-79
2022/05/09 04:40:58;;;;;;;15.40;9.98;;;;;;;-141.48;100.00;69781.59;5172586;28;20018;-80
2022/05/09 04:43:30;;;;;;;8.40;7.80;;;;;;;-141.48;100.00;69781.59;5172207;28;20072;-80
2022/05/09 04:46:01;;;;;;;12.45;8.52;;;;;;;-141.48;100.00;69781.59;5170789;28;20046;-79
2022/05/09 04:48:33;;;;;;;10.88;9.55;;;;;;;-141.48;100.00;69781.59;5171152;28;20054;-80
2022/05/09 04:51:03;;;;;;;15.95;8.82;;;;;;;-141.48;100.00;69781.59;5172300;28;20022;-79
2022/05/09 04:53:34;;;;;;;20.08;9.80;;;;;;;-141.48;100.00;69781.59;5172257;28;20028;-80
2022/05/09 04:56:05;;;;;;;13.30;9.50;;;;;;;-141.48;100.00;69781.59;5172087;28;20037;-82
2022/05/09 04:58:36;;;;;;;9.15;8.23;;;;;;;-141.48;100.00;69781.59;5170923;28;20550;-80
2022/05/09 05:01:06;;;;;;;9.63;8.90;;;;;;;-141.48;100.00;69781.59;5172524;28;20168;-80
2022/05/09 05:03:37;;;;;;;9.32;8.57;;;;;;;-141.48;100.00;69781.59;5172360;28;20033;-81
2022/05/09 05:06:07;;;;;;;9.20;8.43;;;;;;;-141.48;100.00;69781.59;5171688;28;20500;-82
2022/05/09 05:08:38;;;;;;;7.78;7.38;;;;;;;-141.48;100.00;69781.59;5155839;28;20026;-80
2022/05/09 05:11:08;;;;;;;14.43;10.48;;;;;;;-141.48;100.00;69781.59;5172227;28;20050;-80
2022/05/09 05:13:39;;;;;;;10.25;9.25;;;;;;;-141.48;100.00;69781.59;5171938;28;20026;-78
2022/05/09 05:16:09;;;;;;;10.57;9.55;;;;;;;-141.48;100.00;69781.59;5154791;28;20125;-81
2022/05/09 05:18:40;;;;;;;11.00;8.13;;;;;;;-141.48;100.00;69781.59;5182370;28;20036;-81
2022/05/09 05:21:14;;;;;;;10.63;9.57;;;;;;;-141.48;100.00;69781.59;5192859;28;20034;-80
2022/05/09 05:23:44;;;;;;;9.95;9.35;;;;;;;-141.48;100.00;69781.59;5192249;28;20018;-81
2022/05/09 05:26:14;;;;;;;10.30;9.40;;;;;;;-141.48;100.00;69781.59;5192634;28;20105;-80
2022/05/09 05:28:45;;;;;;;7.63;7.18;;;;;;;-141.48;100.00;69781.59;5191626;28;20436;-80
2022/05/09 05:31:20;;;;;;;11.90;9.00;;;;;;;-141.48;100.00;69781.59;5200357;28;20081;-78
2022/05/09 05:33:51;;;;;;;9.63;8.65;;;;;;;-141.48;100.00;69781.59;5183551;28;20022;-80
2022/05/09 05:36:21;;;;;;;10.52;7.43;;;;;;;-141.48;100.00;69781.59;5200434;28;20028;-79
2022/05/09 05:38:51;;;;;;;9.98;8.27;;;;;;;-141.48;100.00;69781.59;5198167;28;20022;-80
2022/05/09 05:41:25;;;;;;;13.90;8.63;;;;;;;-141.48;100.00;69781.59;5192618;28;20057;-79
2022/05/09 05:43:56;;;;;;;9.13;8.13;;;;;;;-141.48;100.00;69781.59;5193011;28;20056;-79
2022/05/09 05:46:27;;;;;;;13.13;8.48;;;;;;;-141.48;100.00;69781.59;5193100;28;20101;-80
2022/05/09 05:48:57;;;;;;;13.18;7.57;;;;;;;-141.48;100.00;69781.59;5191964;28;20121;-82
2022/05/09 05:51:31;;;;;;;8.05;7.28;;;;;;;-141.48;100.00;69781.59;5194936;28;20018;-83
2022/05/09 05:54:03;;;;;;;17.75;8.27;;;;;;;-141.48;100.00;69781.59;5175253;28;20419;-81
2022/05/09 05:56:37;;;;;;;8.75;7.45;;;;;;;-141.48;100.00;69781.59;5192933;28;20484;-80
2022/05/09 05:59:09;;;;;;;8.85;7.93;;;;;;;-141.48;100.00;69781.59;5192082;28;20103;-80
2022/05/09 06:01:39;;;;;;;9.32;7.90;;;;;;;-141.48;100.00;69781.59;5156686;28;20030;-80
2022/05/09 06:04:09;;;;;;;8.57;7.47;;;;;;;-141.48;100.00;69781.59;5171210;28;20377;-80
2022/05/09 06:06:40;;;;;;;8.75;7.97;;;;;;;-141.48;100.00;69781.59;5171688;28;20045;-80
2022/05/09 06:09:11;;;;;;;8.93;8.02;;;;;;;-141.48;100.00;69781.59;5174099;28;20596;-79
2022/05/09 06:11:43;;;;;;;9.02;8.18;;;;;;;-141.48;100.00;69781.59;5176271;28;20114;-79
2022/05/09 06:14:13;;;;;;;12.05;8.63;;;;;;;-141.48;100.00;69781.59;5176181;28;20037;-80
2022/05/09 06:16:45;;;;;;;12.80;8.35;;;;;;;-141.48;100.00;69781.59;5175695;28;20094;-82
2022/05/09 06:19:15;;;;;;;10.80;6.65;;;;;;;-141.48;100.00;69781.59;5175644;28;20030;-82
2022/05/09 06:21:46;;;;;;;9.48;8.13;;;;;;;-141.48;100.00;69781.59;5177889;28;20121;-82
2022/05/09 06:24:17;;;;;;;6.93;6.32;;;;;;;-141.48;100.00;69781.59;5161873;28;20026;-81
2022/05/09 06:26:48;;;;;;;14.27;7.63;;;;;;;-141.48;100.00;69781.59;5183981;28;20037;-79
2022/05/09 06:29:19;;;;;;;9.07;7.90;;;;;;;-141.48;100.00;69781.59;5167416;28;20514;-80
2022/05/09 06:31:50;;;;;;;10.85;8.05;;;;;;;-141.48;100.00;69781.59;5186720;28;20026;-82
2022/05/09 06:34:20;;;;;;;9.25;7.43;;;;;;;-141.48;100.00;69781.59;5188931;28;20086;-83
2022/05/09 06:36:51;;;;;;;11.85;7.65;;;;;;;-141.48;100.00;69781.59;5184931;28;20030;-82
2022/05/09 06:39:21;;;;;;;12.32;7.85;;;;;;;-141.48;100.00;69781.59;5178079;28;20029;-82
2022/05/09 06:41:52;;;;;;;8.07;7.38;;;;;;;-141.48;100.00;69781.59;5159835;28;20049;-82
2022/05/09 06:44:22;;;;;;;6.72;6.22;;;;;;;-141.48;100.00;69781.59;5176626;28;20120;-83
2022/05/09 06:46:52;;;;;;;10.35;7.43;;;;;;;-141.48;100.00;69781.59;5175558;28;20034;-82
2022/05/09 06:49:23;;;;;;;9.73;8.55;;;;;;;-141.48;100.00;69781.59;5158756;28;20034;-82
2022/05/09 06:51:53;;;;;;;9.82;6.30;;;;;;;-141.48;100.00;69781.59;5159320;28;20030;-82
2022/05/09 06:54:24;;;;;;;8.50;6.15;;;;;;;-141.48;100.00;69781.59;5161139;28;20031;-83
2022/05/09 06:56:54;;;;;;;8.77;8.02;;;;;;;-141.48;100.00;69781.59;5179589;28;20031;-83
2022/05/09 06:59:25;;;;;;;7.47;6.78;;;;;;;-141.48;100.00;69781.59;5162597;28;20042;-83
2022/05/09 07:01:55;;;;;;;7.20;6.53;;;;;;;-141.48;100.00;69781.59;5162146;28;20027;-83
2022/05/09 07:04:27;;;;;;;10.70;6.93;;;;;;;-141.48;100.00;69781.59;5178220;28;20038;-84
2022/05/09 07:06:57;;;;;;;7.90;6.35;;;;;;;-141.48;100.00;69781.59;5178176;28;20049;-83
2022/05/09 07:09:28;;;;;;;6.05;5.50;;;;;;;-141.48;100.00;69781.59;5177586;28;20030;-83
2022/05/09 07:11:58;;;;;;;8.40;6.68;;;;;;;-141.48;100.00;69781.59;5177591;28;20033;-84
2022/05/09 07:14:29;;;;;;;9.65;5.70;;;;;;;-141.48;100.00;69781.59;5178155;28;20046;-87
2022/05/09 07:16:59;;;;;;;12.50;7.35;;;;;;;-141.48;100.00;69781.59;5159810;28;20068;-87
2022/05/09 07:19:31;;;;;;;8.15;6.65;;;;;;;-141.48;100.00;69781.59;5176027;28;20022;-86
2022/05/09 07:22:02;;;;;;;8.13;7.18;;;;;;;-141.48;100.00;69781.59;5159232;28;20048;-86
2022/05/09 07:24:32;;;;;;;7.00;6.30;;;;;;;-141.48;100.00;69781.59;5160152;28;20018;-86
2022/05/09 07:27:06;;;;;;;14.32;5.13;;;;;;;-141.48;100.00;69781.59;5159699;28;20029;-85
2022/05/09 07:29:38;;;;;;;6.38;5.55;;;;;;;-141.48;100.00;69781.59;5177198;28;20023;-87
2022/05/09 07:32:11;;;;;;;6.43;5.70;;;;;;;-141.48;100.00;69781.59;5177240;28;20552;-86
2022/05/09 07:34:43;;;;;;;8.18;5.15;;;;;;;-141.48;100.00;69781.59;5159058;28;20535;-87
2022/05/09 07:37:15;;;;;;;12.80;7.57;;;;;;;-141.48;100.00;69781.59;5164617;23;20116;-56
2022/05/09 07:39:45;;;;;;;11.32;7.30;;;;;;;-141.48;100.00;69781.59;5150106;28;20098;-55
2022/05/09 07:42:23;;;;;;;21.73;6.60;;;;;;;-141.48;100.00;69781.59;5149710;28;20109;-56
2022/05/09 07:44:56;;;;;;;6.13;5.63;;;;;;;-141.48;100.00;69781.59;5153124;28;20027;-57
2022/05/09 07:47:26;;;;;;;5.70;5.20;;;;;;;-141.48;100.00;69781.59;5146179;28;20181;-61
2022/05/09 07:49:57;;;;;;;7.82;7.00;;;;;;;-141.48;100.00;69781.59;5148293;28;20402;-60
2022/05/09 07:52:27;;;;;;;7.53;6.82;;;;;;;-141.48;100.00;69781.59;5148856;28;20073;-60
2022/05/09 07:54:58;;;;;;;30.80;7.60;;;;;;;-141.48;100.00;69781.59;5130419;28;20510;-61
2022/05/09 07:57:28;;;;;;;12.00;6.65;;;;;;;-141.48;100.00;69781.59;5146675;28;20031;-61
2022/05/09 07:59:59;;;;;;;15.27;6.82;;;;;;;-141.48;100.00;69781.59;5146705;28;20101;-61
2022/05/09 08:02:31;;;;;;;9.43;5.20;;;;;;;-141.48;100.00;69781.59;5127341;28;20027;-62
2022/05/09 08:05:01;;;;;;;14.52;5.80;;;;;;;-141.48;100.00;69781.59;5144191;28;20031;-64
2022/05/09 08:07:32;;;;;;;9.52;5.97;;;;;;;-141.48;100.00;69781.59;5129626;28;20045;-62
2022/05/09 08:10:04;;;;;;;7.05;5.95;;;;;;;-141.48;100.00;69781.59;5146948;28;20101;-62
2022/05/09 08:12:34;;;;;;;4.65;4.25;;;;;;;-141.48;100.00;69781.59;5129009;28;20023;-62
2022/05/09 08:15:06;;;;;;;4.90;4.45;;;;;;;-141.48;100.00;69781.59;5128602;28;20026;-62
2022/05/09 08:17:37;;;;;;;5.20;4.80;;;;;;;-141.48;100.00;69781.59;5129040;28;20515;-62
2022/05/09 08:20:09;;;;;;;7.82;5.20;;;;;;;-141.48;100.00;69781.59;5145987;28;20069;-60
2022/05/09 08:22:40;;;;;;;12.32;6.88;;;;;;;-141.48;100.00;69781.59;5145630;28;20027;-60
2022/05/09 08:25:13;;;;;;;6.82;5.30;;;;;;;-141.48;100.00;69781.59;5145456;28;20026;-60
2022/05/09 08:27:44;;;;;;;4.55;4.22;;;;;;;-141.48;100.00;69781.59;5145404;28;20026;-60
2022/05/09 08:30:15;;;;;;;6.72;4.32;;;;;;;-141.48;100.00;69781.59;5129891;28;20126;-59
2022/05/09 08:32:45;;;;;;;4.35;4.05;;;;;;;-141.48;100.00;69781.59;5145818;28;20108;-61
2022/05/09 08:35:16;;;;;;;14.75;5.00;;;;;;;-141.48;100.00;69781.59;5144970;28;20066;-59
2022/05/09 08:37:46;;;;;;;4.38;4.13;;;;;;;-141.48;100.00;69781.59;5144981;28;20038;-59
2022/05/09 08:40:20;;;;;;;13.95;5.18;;;;;;;-141.48;100.00;69781.59;5146421;28;20488;-59
2022/05/09 08:43:00;;;;;;;6.93;4.40;;;;;;;-141.48;100.00;69781.59;5146273;28;20046;-60
2022/05/09 08:45:37;;;;;;;4.40;4.10;;;;;;;-141.48;100.00;69781.59;5144689;28;20027;-59
2022/05/09 08:48:23;;;;;;;2.65;2.45;;;;;;;-141.48;100.00;69781.59;5144937;28;20049;-58
2022/05/09 08:51:42;;;;;;;5.88;5.15;;;;;;;-141.48;100.00;69781.59;5144713;28;20027;-59
2022/05/09 08:54:20;;;;;;;3.55;3.25;;;;;;;-141.48;100.00;69781.59;5128986;28;20027;-59
2022/05/09 08:56:57;;;;;;;7.40;3.28;;;;;;;-141.48;100.00;69781.59;5145576;28;20026;-61
2022/05/09 08:59:34;;;;;;;5.63;3.28;;;;;;;-141.48;100.00;69781.59;5146891;28;20054;-59
2022/05/09 09:02:18;;;;;;;8.38;4.13;;;;;;;-141.48;100.00;69781.59;5144711;28;20027;-59
2022/05/09 09:04:55;;;;;;;4.50;3.63;;;;;;;-141.48;100.00;69781.59;5144660;28;20058;-61
2022/05/09 09:07:29;;;;;;;4.07;3.65;;;;;;;-141.48;100.00;69781.59;5144972;28;20414;-60
2022/05/09 09:10:24;;;;;;;7.63;4.50;;;;;;;-141.48;100.00;69781.59;5144729;28;20034;-60
2022/05/09 09:13:01;;;;;;;5.60;4.18;;;;;;;-141.48;100.00;69781.59;5144411;28;20031;-60
2022/05/09 09:15:53;;;;;;;6.63;3.30;;;;;;;-141.48;100.00;69781.59;5145453;28;20027;-59
2022/05/09 09:18:44;;;;;;;5.78;4.43;;;;;;;-141.48;100.00;69781.59;5144403;28;20035;-60
2022/05/09 09:21:14;;;;;;;5.53;4.00;;;;;;;-141.48;100.00;69781.59;5143728;28;20065;-60
2022/05/09 09:24:10;;;;;;;7.65;3.88;;;;;;;-141.48;100.00;69781.59;5143700;28;20506;-60
2022/05/09 09:26:41;;;;;;;22.70;4.88;;;;;;;-141.48;100.00;69781.59;5144189;28;20038;-62
2022/05/09 09:29:24;;;;;;;6.00;4.03;;;;;;;-141.48;100.00;69781.59;5144794;28;20026;-62
2022/05/09 09:32:06;;;;;;;1.98;1.88;;;;;;;-141.48;100.00;69781.59;5143833;28;20372;-60
2022/05/09 09:35:06;;;;;;;3.67;3.42;;;;;;;-141.48;100.00;69781.59;5142393;23;20030;-62
2022/05/09 09:38:00;;;;;;;5.20;3.97;;;;;;;-141.48;100.00;69781.59;5160497;28;20108;-63
2022/05/09 09:40:31;;;;;;;5.68;4.35;;;;;;;-141.48;100.00;69781.59;5163942;28;20538;-61
2022/05/09 09:43:02;;;;;;;5.43;4.07;;;;;;;-141.48;100.00;69781.59;5161769;28;20109;-61
2022/05/09 09:45:40;;;;;;;5.32;3.45;;;;;;;-141.48;100.00;69781.59;5129126;28;20137;-61
2022/05/09 09:48:22;;;;;;;3.00;2.90;;;;;;;-141.48;100.00;69781.59;5142511;28;20102;-61
2022/05/09 09:51:03;;;;;;;3.60;3.30;;;;;;;-141.48;100.00;69781.59;5126514;28;20030;-60
2022/05/09 09:53:39;;;;;;;3.47;2.92;;;;;;;-141.48;100.00;69781.59;5125972;28;20018;-61
2022/05/09 09:56:21;;;;;;;4.20;2.38;;;;;;;-141.48;100.00;69781.59;5143866;28;20026;-59
2022/05/09 09:58:57;;;;;;;2.75;2.55;;;;;;;-141.48;100.00;69781.59;5143764;28;20026;-60
2022/05/09 10:01:32;;;;;;;2.10;2.00;;;;;;;-141.48;100.00;69781.59;5126555;28;20023;-60
2022/05/09 10:04:05;;;;;;;2.55;2.00;;;;;;;-141.48;100.00;69781.59;5141991;28;20078;-63
2022/05/09 10:06:59;;;;;;;2.45;2.25;;;;;;;-141.48;100.00;69781.59;5142041;28;20101;-61
2022/05/09 10:10:10;;;;;;;2.92;2.70;;;;;;;-141.48;100.00;69781.59;5142462;28;20142;-61
2022/05/09 10:12:48;;;;;;;3.13;2.90;;;;;;;-141.48;100.00;69781.59;5142258;28;20446;-61
2022/05/09 10:15:28;;;;;;;6.37;3.73;;;;;;;-141.48;100.00;69781.59;5142175;28;20034;-61
2022/05/09 10:17:58;;;;;;;;;;;;;;;-141.48;100.00;69781.59;5142959;28;20599;-61
2022/05/09 10:20:40;;;;;;;3.85;3.35;;;;;;;-141.48;100.00;69781.59;5124084;28;19917;-61
2022/05/09 10:26:23;;;;;;;7.50;3.50;;;;;;;-141.48;100.00;69781.59;5144154;28;20521;-61
2022/05/09 10:29:05;;;;;;;5.68;3.63;;;;;;;-141.48;100.00;69781.59;5126414;28;20035;-60
2022/05/09 10:31:44;;;;;;;3.20;2.90;;;;;;;-141.48;100.00;69781.59;5126406;28;20019;-61
2022/05/09 10:34:26;;;;;;;6.22;3.58;;;;;;;-141.48;100.00;69781.59;5126056;28;20037;-65
2022/05/09 10:37:07;;;;;;;4.75;2.53;;;;;;;-141.48;100.00;69781.59;5143738;28;20402;-61
2022/05/09 10:39:43;;;;;;;2.60;2.50;;;;;;;-141.48;100.00;69781.59;5143879;28;20495;-61
2022/05/09 10:42:32;;;;;;;12.68;5.28;;;;;;;-141.48;100.00;69781.59;5126148;28;20122;-62
2022/05/09 10:45:20;;;;;;;6.75;3.10;;;;;;;-141.48;100.00;69781.59;5125860;28;20034;-61
2022/05/09 10:48:00;;;;;;;6.03;4.53;;;;;;;-141.48;100.00;69781.59;5142245;28;20050;-59
2022/05/09 10:50:49;;;;;;;3.50;3.00;;;;;;;-141.48;100.00;69781.59;5142297;28;20089;-61
2022/05/09 10:53:32;;;;;;;5.07;3.45;;;;;;;-141.48;100.00;69781.59;5142139;28;20033;-61
2022/05/09 10:56:19;;;;;;;5.13;3.30;;;;;;;-141.48;100.00;69781.59;5145081;28;20487;-61
2022/05/09 10:58:58;;;;;;;4.35;3.80;;;;;;;-141.48;100.00;69781.59;5129448;28;20026;-61
2022/05/09 11:01:32;;;;;;;4.65;4.25;;;;;;;-141.48;100.00;69781.59;5145312;28;20061;-61
2022/05/09 11:04:03;;;;;;;8.98;4.35;;;;;;;-141.48;100.00;69781.59;5129163;28;20029;-62
2022/05/09 11:06:58;;;;;;;4.15;3.85;;;;;;;-141.48;100.00;69781.59;5129462;28;20113;-61
2022/05/09 11:10:11;;;;;;;6.40;5.22;;;;;;;-141.48;100.00;69781.59;5145426;28;20031;-61
2022/05/09 11:13:07;;;;;;;5.15;4.47;;;;;;;-141.48;100.00;69781.59;5049305;29;20076;-62
2022/05/09 11:15:49;;;;;;;5.43;3.83;;;;;;;-141.48;100.00;69781.59;5128305;28;20034;-62
2022/05/09 11:18:41;;;;;;;6.55;6.03;;;;;;;-141.48;100.00;69781.59;5145196;28;20157;-61
2022/05/09 11:21:38;;;;;;;5.30;4.88;;;;;;;-141.48;100.00;69781.59;5145284;28;20491;-62
2022/05/09 11:24:38;;;;;;;4.57;4.28;;;;;;;-141.48;100.00;69781.59;5094755;28;20034;-63
2022/05/09 11:27:20;;;;;;;6.15;4.53;;;;;;;-141.48;100.00;69781.59;5144917;28;20081;-61
2022/05/09 11:30:26;;;;;;;3.00;2.80;;;;;;;-141.48;100.00;69781.59;5146084;28;20031;-62
2022/05/09 11:33:06;;;;;;;4.85;4.45;;;;;;;-141.48;100.00;69781.59;5064755;29;20040;-62
2022/05/09 11:35:36;;;;;;;;;;;;;;;-141.48;100.00;69781.59;5137021;28;20422;-62
2022/05/09 11:38:30;;;;;;;5.00;4.57;;;;;;;-141.48;100.00;69781.59;5144670;28;19910;-63
2022/05/09 11:41:21;;;;;;;3.67;3.47;;;;;;;-141.48;100.00;69781.59;5128754;28;20027;-63
2022/05/09 11:44:15;;;;;;;9.77;5.80;;;;;;;-141.48;100.00;69781.59;5128531;28;20085;-61
2022/05/09 11:47:09;;;;;;;6.45;4.60;;;;;;;-141.48;100.00;69781.59;5128746;28;20113;-62
2022/05/09 11:49:58;;;;;;;8.15;4.75;;;;;;;-141.48;100.00;69781.59;5144711;28;20438;-62
2022/05/09 11:52:38;;;;;;;4.57;4.25;;;;;;;-141.48;100.00;69781.59;5145021;28;20097;-62